sensor_id;sensor_type;location;lat;lon;timestamp;P1;durP1;ratioP1;P2;durP2;ratioP2
2544;SDS011;36212;48.838;9.142;2023-04-25T00:02:29;3.38;;;3.08;;
2544;SDS011;36212;48.838;9.142;2023-04-25T00:05:05;3.88;;;2.85;;
2544;SDS011;36212;48.838;9.142;2023-04-25T00:07:38;3.13;;;2.90;;
2544;SDS011;36212;48.838;9.142;2023-04-25T00:10:12;3.08;;;2.88;;
2544;SDS011;36212;48.838;9.142;2023-04-25T00:12:44;3.20;;;3.00;;
2544;SDS011;36212;48.838;9.142;2023-04-25T00:15:17;2.92;;;2.72;;
2544;SDS011;36212;48.838;9.142;2023-04-25T00:17:50;3.20;;;2.95;;
2544;SDS011;36212;48.838;9.142;2023-04-25T00:20:24;2.90;;;2.70;;
2544;SDS011;36212;48.838;9.142;2023-04-25T00:22:56;3.05;;;2.70;;
2544;SDS011;36212;48.838;9.142;2023-04-25T00:25:28;3.50;;;3.20;;
2544;SDS011;36212;48.838;9.142;2023-04-25T00:28:01;3.75;;;3.17;;
2544;SDS011;36212;48.838;9.142;2023-04-25T00:30:33;5.10;;;2.65;;
2544;SDS011;36212;48.838;9.142;2023-04-25T00:33:05;2.95;;;2.75;;
2544;SDS011;36212;48.838;9.142;2023-04-25T00:35:38;3.28;;;2.97;;
2544;SDS011;36212;48.838;9.142;2023-04-25T00:38:10;2.70;;;2.50;;
2544;SDS011;36212;48.838;9.142;2023-04-25T00:40:42;2.75;;;2.55;;
2544;SDS011;36212;48.838;9.142;2023-04-25T00:43:15;2.40;;;2.30;;
2544;SDS011;36212;48.838;9.142;2023-04-25T00:45:47;3.17;;;2.97;;
2544;SDS011;36212;48.838;9.142;2023-04-25T00:48:22;3.05;;;2.85;;
2544;SDS011;36212;48.838;9.142;2023-04-25T00:50:58;3.00;;;2.80;;
2544;SDS011;36212;48.838;9.142;2023-04-25T00:53:30;2.85;;;2.75;;
2544;SDS011;36212;48.838;9.142;2023-04-25T00:56:03;3.10;;;2.90;;
2544;SDS011;36212;48.838;9.142;2023-04-25T00:58:36;2.90;;;2.70;;
2544;SDS011;36212;48.838;9.142;2023-04-25T01:01:10;2.85;;;2.47;;
2544;SDS011;36212;48.838;9.142;2023-04-25T01:03:44;2.63;;;2.50;;
2544;SDS011;36212;48.838;9.142;2023-04-25T01:06:19;3.08;;;2.88;;
2544;SDS011;36212;48.838;9.142;2023-04-25T01:08:53;2.95;;;2.75;;
2544;SDS011;36212;48.838;9.142;2023-04-25T01:11:26;2.80;;;2.60;;
2544;SDS011;36212;48.838;9.142;2023-04-25T01:13:58;3.28;;;3.08;;
2544;SDS011;36212;48.838;9.142;2023-04-25T01:16:32;3.10;;;2.90;;
2544;SDS011;36212;48.838;9.142;2023-04-25T01:19:07;2.45;;;2.35;;
2544;SDS011;36212;48.838;9.142;2023-04-25T01:21:46;3.40;;;3.20;;
2544;SDS011;36212;48.838;9.142;2023-04-25T01:24:18;2.60;;;2.40;;
2544;SDS011;36212;48.838;9.142;2023-04-25T01:26:51;3.47;;;2.85;;
2544;SDS011;36212;48.838;9.142;2023-04-25T01:29:24;3.05;;;2.85;;
2544;SDS011;36212;48.838;9.142;2023-04-25T01:31:58;3.58;;;2.85;;
2544;SDS011;36212;48.838;9.142;2023-04-25T01:34:32;3.35;;;2.90;;
2544;SDS011;36212;48.838;9.142;2023-04-25T01:37:05;2.80;;;2.70;;
2544;SDS011;36212;48.838;9.142;2023-04-25T01:39:37;3.30;;;3.10;;
2544;SDS011;36212;48.838;9.142;2023-04-25T01:42:13;3.20;;;3.00;;
2544;SDS011;36212;48.838;9.142;2023-04-25T01:44:46;3.25;;;3.05;;
2544;SDS011;36212;48.838;9.142;2023-04-25T01:47:18;4.32;;;3.45;;
2544;SDS011;36212;48.838;9.142;2023-04-25T01:49:50;3.38;;;3.25;;
2544;SDS011;36212;48.838;9.142;2023-04-25T01:52:23;3.33;;;3.13;;
2544;SDS011;36212;48.838;9.142;2023-04-25T01:54:55;3.42;;;3.22;;
2544;SDS011;36212;48.838;9.142;2023-04-25T01:57:30;6.07;;;3.67;;
2544;SDS011;36212;48.838;9.142;2023-04-25T02:00:04;3.58;;;3.38;;
2544;SDS011;36212;48.838;9.142;2023-04-25T02:02:41;3.72;;;3.42;;
2544;SDS011;36212;48.838;9.142;2023-04-25T02:05:14;3.55;;;3.35;;
2544;SDS011;36212;48.838;9.142;2023-04-25T02:07:47;3.42;;;3.22;;
2544;SDS011;36212;48.838;9.142;2023-04-25T02:10:19;3.40;;;3.20;;
2544;SDS011;36212;48.838;9.142;2023-04-25T02:12:51;5.57;;;3.60;;
2544;SDS011;36212;48.838;9.142;2023-04-25T02:15:24;5.82;;;3.28;;
2544;SDS011;36212;48.838;9.142;2023-04-25T02:17:56;3.70;;;3.40;;
2544;SDS011;36212;48.838;9.142;2023-04-25T02:20:30;3.60;;;3.40;;
2544;SDS011;36212;48.838;9.142;2023-04-25T02:23:03;4.15;;;3.85;;
2544;SDS011;36212;48.838;9.142;2023-04-25T02:25:35;3.55;;;3.35;;
2544;SDS011;36212;48.838;9.142;2023-04-25T02:28:07;3.78;;;3.58;;
2544;SDS011;36212;48.838;9.142;2023-04-25T02:30:40;3.60;;;3.30;;
2544;SDS011;36212;48.838;9.142;2023-04-25T02:33:12;3.65;;;3.45;;
2544;SDS011;36212;48.838;9.142;2023-04-25T02:35:47;3.78;;;3.47;;
2544;SDS011;36212;48.838;9.142;2023-04-25T02:38:19;3.78;;;3.58;;
2544;SDS011;36212;48.838;9.142;2023-04-25T02:40:51;4.10;;;3.50;;
2544;SDS011;36212;48.838;9.142;2023-04-25T02:43:23;3.70;;;3.50;;
2544;SDS011;36212;48.838;9.142;2023-04-25T02:45:55;4.18;;;3.80;;
2544;SDS011;36212;48.838;9.142;2023-04-25T02:48:27;4.47;;;4.18;;
2544;SDS011;36212;48.838;9.142;2023-04-25T02:51:03;3.70;;;3.50;;
2544;SDS011;36212;48.838;9.142;2023-04-25T02:53:35;4.00;;;3.80;;
2544;SDS011;36212;48.838;9.142;2023-04-25T02:56:07;4.95;;;4.10;;
2544;SDS011;36212;48.838;9.142;2023-04-25T02:58:39;3.95;;;3.65;;
2544;SDS011;36212;48.838;9.142;2023-04-25T03:01:12;4.30;;;4.00;;
2544;SDS011;36212;48.838;9.142;2023-04-25T03:03:44;3.42;;;3.20;;
2544;SDS011;36212;48.838;9.142;2023-04-25T03:06:16;4.18;;;3.78;;
2544;SDS011;36212;48.838;9.142;2023-04-25T03:08:48;3.92;;;3.72;;
2544;SDS011;36212;48.838;9.142;2023-04-25T03:11:20;4.68;;;4.28;;
2544;SDS011;36212;48.838;9.142;2023-04-25T03:13:55;4.05;;;3.75;;
2544;SDS011;36212;48.838;9.142;2023-04-25T03:16:27;5.75;;;4.20;;
2544;SDS011;36212;48.838;9.142;2023-04-25T03:18:59;3.78;;;3.47;;
2544;SDS011;36212;48.838;9.142;2023-04-25T03:21:33;3.95;;;3.65;;
2544;SDS011;36212;48.838;9.142;2023-04-25T03:24:06;4.32;;;4.13;;
2544;SDS011;36212;48.838;9.142;2023-04-25T03:26:38;4.07;;;3.78;;
2544;SDS011;36212;48.838;9.142;2023-04-25T03:29:10;3.83;;;3.63;;
2544;SDS011;36212;48.838;9.142;2023-04-25T03:31:43;4.50;;;4.20;;
2544;SDS011;36212;48.838;9.142;2023-04-25T03:34:15;4.60;;;4.25;;
2544;SDS011;36212;48.838;9.142;2023-04-25T03:36:47;5.78;;;4.57;;
2544;SDS011;36212;48.838;9.142;2023-04-25T03:39:19;5.22;;;3.80;;
2544;SDS011;36212;48.838;9.142;2023-04-25T03:41:51;3.75;;;3.45;;
2544;SDS011;36212;48.838;9.142;2023-04-25T03:44:23;3.95;;;3.60;;
2544;SDS011;36212;48.838;9.142;2023-04-25T03:46:56;3.83;;;3.53;;
2544;SDS011;36212;48.838;9.142;2023-04-25T03:49:28;4.60;;;4.30;;
2544;SDS011;36212;48.838;9.142;2023-04-25T03:52:01;4.22;;;3.92;;
2544;SDS011;36212;48.838;9.142;2023-04-25T03:54:33;4.30;;;4.00;;
2544;SDS011;36212;48.838;9.142;2023-04-25T03:57:05;4.63;;;4.32;;
2544;SDS011;36212;48.838;9.142;2023-04-25T03:59:37;5.15;;;4.75;;
2544;SDS011;36212;48.838;9.142;2023-04-25T04:02:09;5.00;;;4.60;;
2544;SDS011;36212;48.838;9.142;2023-04-25T04:04:42;4.47;;;4.28;;
2544;SDS011;36212;48.838;9.142;2023-04-25T04:07:16;5.28;;;4.78;;
2544;SDS011;36212;48.838;9.142;2023-04-25T04:09:48;4.72;;;4.28;;
2544;SDS011;36212;48.838;9.142;2023-04-25T04:12:20;5.40;;;4.95;;
2544;SDS011;36212;48.838;9.142;2023-04-25T04:17:42;4.20;;;4.00;;
2544;SDS011;36212;48.838;9.142;2023-04-25T04:20:14;4.20;;;3.90;;
2544;SDS011;36212;48.838;9.142;2023-04-25T04:22:46;4.63;;;3.95;;
2544;SDS011;36212;48.838;9.142;2023-04-25T04:25:18;4.68;;;4.32;;
2544;SDS011;36212;48.838;9.142;2023-04-25T04:27:50;4.70;;;4.40;;
2544;SDS011;36212;48.838;9.142;2023-04-25T04:30:33;4.57;;;4.25;;
2544;SDS011;36212;48.838;9.142;2023-04-25T04:33:08;4.80;;;4.50;;
2544;SDS011;36212;48.838;9.142;2023-04-25T04:35:41;4.18;;;3.88;;
2544;SDS011;36212;48.838;9.142;2023-04-25T04:38:32;4.07;;;3.78;;
2544;SDS011;36212;48.838;9.142;2023-04-25T04:41:05;4.85;;;4.55;;
2544;SDS011;36212;48.838;9.142;2023-04-25T04:43:37;4.65;;;4.35;;
2544;SDS011;36212;48.838;9.142;2023-04-25T04:46:12;4.93;;;4.57;;
2544;SDS011;36212;48.838;9.142;2023-04-25T04:48:45;5.72;;;5.15;;
2544;SDS011;36212;48.838;9.142;2023-04-25T04:51:17;4.60;;;4.30;;
2544;SDS011;36212;48.838;9.142;2023-04-25T04:53:51;5.20;;;4.80;;
2544;SDS011;36212;48.838;9.142;2023-04-25T04:56:25;4.50;;;4.20;;
2544;SDS011;36212;48.838;9.142;2023-04-25T04:58:59;4.38;;;4.07;;
2544;SDS011;36212;48.838;9.142;2023-04-25T05:01:38;4.90;;;4.50;;
2544;SDS011;36212;48.838;9.142;2023-04-25T05:04:11;4.97;;;4.68;;
2544;SDS011;36212;48.838;9.142;2023-04-25T05:06:43;5.45;;;5.00;;
2544;SDS011;36212;48.838;9.142;2023-04-25T05:09:21;4.95;;;4.65;;
2544;SDS011;36212;48.838;9.142;2023-04-25T05:11:57;5.75;;;5.35;;
2544;SDS011;36212;48.838;9.142;2023-04-25T05:14:29;5.38;;;4.97;;
2544;SDS011;36212;48.838;9.142;2023-04-25T05:17:01;8.15;;;5.45;;
2544;SDS011;36212;48.838;9.142;2023-04-25T05:19:38;6.47;;;5.90;;
2544;SDS011;36212;48.838;9.142;2023-04-25T05:22:10;6.40;;;5.80;;
2544;SDS011;36212;48.838;9.142;2023-04-25T05:24:43;6.53;;;5.95;;
2544;SDS011;36212;48.838;9.142;2023-04-25T05:27:35;6.65;;;6.10;;
2544;SDS011;36212;48.838;9.142;2023-04-25T05:30:07;6.55;;;6.05;;
2544;SDS011;36212;48.838;9.142;2023-04-25T05:32:40;6.95;;;6.32;;
2544;SDS011;36212;48.838;9.142;2023-04-25T05:35:12;5.55;;;5.15;;
2544;SDS011;36212;48.838;9.142;2023-04-25T05:37:45;5.72;;;5.30;;
2544;SDS011;36212;48.838;9.142;2023-04-25T05:40:17;5.53;;;5.03;;
2544;SDS011;36212;48.838;9.142;2023-04-25T05:42:49;5.40;;;4.90;;
2544;SDS011;36212;48.838;9.142;2023-04-25T05:45:21;5.28;;;4.88;;
2544;SDS011;36212;48.838;9.142;2023-04-25T05:47:55;6.00;;;5.50;;
2544;SDS011;36212;48.838;9.142;2023-04-25T05:50:28;5.90;;;5.22;;
2544;SDS011;36212;48.838;9.142;2023-04-25T05:53:00;4.85;;;4.45;;
2544;SDS011;36212;48.838;9.142;2023-04-25T05:55:34;6.22;;;5.03;;
2544;SDS011;36212;48.838;9.142;2023-04-25T05:58:06;5.00;;;4.53;;
2544;SDS011;36212;48.838;9.142;2023-04-25T06:00:38;5.07;;;4.68;;
2544;SDS011;36212;48.838;9.142;2023-04-25T06:03:13;5.60;;;5.10;;
2544;SDS011;36212;48.838;9.142;2023-04-25T06:05:51;5.35;;;4.97;;
2544;SDS011;36212;48.838;9.142;2023-04-25T06:08:23;6.65;;;6.15;;
2544;SDS011;36212;48.838;9.142;2023-04-25T06:10:55;4.70;;;4.30;;
2544;SDS011;36212;48.838;9.142;2023-04-25T06:13:28;5.15;;;4.75;;
2544;SDS011;36212;48.838;9.142;2023-04-25T06:16:00;5.35;;;4.95;;
2544;SDS011;36212;48.838;9.142;2023-04-25T06:18:32;4.95;;;4.55;;
2544;SDS011;36212;48.838;9.142;2023-04-25T06:21:04;5.28;;;4.88;;
2544;SDS011;36212;48.838;9.142;2023-04-25T06:23:37;5.45;;;5.05;;
2544;SDS011;36212;48.838;9.142;2023-04-25T06:26:09;5.68;;;5.13;;
2544;SDS011;36212;48.838;9.142;2023-04-25T06:28:41;4.85;;;4.45;;
2544;SDS011;36212;48.838;9.142;2023-04-25T06:31:14;4.85;;;4.50;;
2544;SDS011;36212;48.838;9.142;2023-04-25T06:33:47;5.13;;;4.72;;
2544;SDS011;36212;48.838;9.142;2023-04-25T06:36:21;4.38;;;4.18;;
2544;SDS011;36212;48.838;9.142;2023-04-25T06:38:59;5.75;;;5.25;;
2544;SDS011;36212;48.838;9.142;2023-04-25T06:41:33;5.93;;;5.53;;
2544;SDS011;36212;48.838;9.142;2023-04-25T06:44:05;4.93;;;4.53;;
2544;SDS011;36212;48.838;9.142;2023-04-25T06:46:37;5.65;;;5.18;;
2544;SDS011;36212;48.838;9.142;2023-04-25T06:49:10;4.88;;;4.57;;
2544;SDS011;36212;48.838;9.142;2023-04-25T06:51:42;5.85;;;4.82;;
2544;SDS011;36212;48.838;9.142;2023-04-25T06:54:14;4.88;;;4.57;;
2544;SDS011;36212;48.838;9.142;2023-04-25T06:56:47;5.10;;;4.80;;
2544;SDS011;36212;48.838;9.142;2023-04-25T06:59:20;5.50;;;5.10;;
2544;SDS011;36212;48.838;9.142;2023-04-25T07:01:52;6.95;;;4.80;;
2544;SDS011;36212;48.838;9.142;2023-04-25T07:04:24;5.75;;;5.35;;
2544;SDS011;36212;48.838;9.142;2023-04-25T07:06:57;5.80;;;5.30;;
2544;SDS011;36212;48.838;9.142;2023-04-25T07:09:32;5.03;;;4.72;;
2544;SDS011;36212;48.838;9.142;2023-04-25T07:12:07;5.78;;;5.32;;
2544;SDS011;36212;48.838;9.142;2023-04-25T07:14:40;5.30;;;4.75;;
2544;SDS011;36212;48.838;9.142;2023-04-25T07:17:12;5.18;;;4.78;;
2544;SDS011;36212;48.838;9.142;2023-04-25T07:19:46;4.85;;;4.55;;
2544;SDS011;36212;48.838;9.142;2023-04-25T07:22:18;6.25;;;5.65;;
2544;SDS011;36212;48.838;9.142;2023-04-25T07:24:50;7.55;;;5.50;;
2544;SDS011;36212;48.838;9.142;2023-04-25T07:27:25;5.07;;;4.70;;
2544;SDS011;36212;48.838;9.142;2023-04-25T07:29:57;5.80;;;5.30;;
2544;SDS011;36212;48.838;9.142;2023-04-25T07:32:29;5.20;;;4.80;;
2544;SDS011;36212;48.838;9.142;2023-04-25T07:35:01;5.15;;;4.85;;
2544;SDS011;36212;48.838;9.142;2023-04-25T07:37:35;5.43;;;4.72;;
2544;SDS011;36212;48.838;9.142;2023-04-25T07:40:07;5.53;;;5.13;;
2544;SDS011;36212;48.838;9.142;2023-04-25T07:42:41;4.97;;;4.50;;
2544;SDS011;36212;48.838;9.142;2023-04-25T07:45:13;6.05;;;5.55;;
2544;SDS011;36212;48.838;9.142;2023-04-25T07:47:45;5.28;;;4.88;;
2544;SDS011;36212;48.838;9.142;2023-04-25T07:50:18;5.40;;;5.00;;
2544;SDS011;36212;48.838;9.142;2023-04-25T07:52:50;5.38;;;4.97;;
2544;SDS011;36212;48.838;9.142;2023-04-25T07:55:22;5.07;;;4.70;;
2544;SDS011;36212;48.838;9.142;2023-04-25T07:57:54;5.50;;;5.10;;
2544;SDS011;36212;48.838;9.142;2023-04-25T08:00:26;5.10;;;4.80;;
2544;SDS011;36212;48.838;9.142;2023-04-25T08:03:00;5.47;;;5.07;;
2544;SDS011;36212;48.838;9.142;2023-04-25T08:05:32;4.68;;;4.30;;
2544;SDS011;36212;48.838;9.142;2023-04-25T08:08:06;6.28;;;4.65;;
2544;SDS011;36212;48.838;9.142;2023-04-25T08:10:39;5.22;;;4.93;;
2544;SDS011;36212;48.838;9.142;2023-04-25T08:13:12;5.70;;;5.30;;
2544;SDS011;36212;48.838;9.142;2023-04-25T08:15:44;5.28;;;4.97;;
2544;SDS011;36212;48.838;9.142;2023-04-25T08:18:17;5.43;;;4.93;;
2544;SDS011;36212;48.838;9.142;2023-04-25T08:20:50;5.97;;;5.57;;
2544;SDS011;36212;48.838;9.142;2023-04-25T08:23:22;6.57;;;5.88;;
2544;SDS011;36212;48.838;9.142;2023-04-25T08:25:55;6.15;;;5.75;;
2544;SDS011;36212;48.838;9.142;2023-04-25T08:28:27;5.70;;;5.20;;
2544;SDS011;36212;48.838;9.142;2023-04-25T08:31:00;6.00;;;5.40;;
2544;SDS011;36212;48.838;9.142;2023-04-25T08:33:32;5.88;;;5.35;;
2544;SDS011;36212;48.838;9.142;2023-04-25T08:36:05;6.03;;;5.63;;
2544;SDS011;36212;48.838;9.142;2023-04-25T08:38:38;6.30;;;5.80;;
2544;SDS011;36212;48.838;9.142;2023-04-25T08:41:11;6.78;;;6.00;;
2544;SDS011;36212;48.838;9.142;2023-04-25T08:43:46;5.28;;;4.88;;
2544;SDS011;36212;48.838;9.142;2023-04-25T08:46:21;5.60;;;5.10;;
2544;SDS011;36212;48.838;9.142;2023-04-25T08:48:56;7.00;;;6.53;;
2544;SDS011;36212;48.838;9.142;2023-04-25T08:51:34;6.75;;;6.15;;
2544;SDS011;36212;48.838;9.142;2023-04-25T08:54:14;7.45;;;6.85;;
2544;SDS011;36212;48.838;9.142;2023-04-25T08:57:07;5.75;;;5.30;;
2544;SDS011;36212;48.838;9.142;2023-04-25T08:59:40;7.75;;;6.18;;
2544;SDS011;36212;48.838;9.142;2023-04-25T09:02:17;5.95;;;5.35;;
2544;SDS011;36212;48.838;9.142;2023-04-25T09:04:52;6.63;;;6.13;;
2544;SDS011;36212;48.838;9.142;2023-04-25T09:07:27;8.20;;;6.00;;
2544;SDS011;36212;48.838;9.142;2023-04-25T09:10:00;6.82;;;6.22;;
2544;SDS011;36212;48.838;9.142;2023-04-25T09:12:35;5.72;;;5.30;;
2544;SDS011;36212;48.838;9.142;2023-04-25T09:15:09;6.40;;;5.80;;
2544;SDS011;36212;48.838;9.142;2023-04-25T09:17:56;6.45;;;5.97;;
2544;SDS011;36212;48.838;9.142;2023-04-25T09:20:29;6.80;;;6.30;;
2544;SDS011;36212;48.838;9.142;2023-04-25T09:23:12;6.47;;;5.50;;
2544;SDS011;36212;48.838;9.142;2023-04-25T09:25:53;5.70;;;5.30;;
2544;SDS011;36212;48.838;9.142;2023-04-25T09:28:26;5.53;;;5.13;;
2544;SDS011;36212;48.838;9.142;2023-04-25T09:31:01;5.78;;;5.00;;
2544;SDS011;36212;48.838;9.142;2023-04-25T09:33:34;6.03;;;5.63;;
2544;SDS011;36212;48.838;9.142;2023-04-25T09:36:08;6.07;;;5.65;;
2544;SDS011;36212;48.838;9.142;2023-04-25T09:38:44;8.25;;;5.78;;
2544;SDS011;36212;48.838;9.142;2023-04-25T09:41:27;6.85;;;6.35;;
2544;SDS011;36212;48.838;9.142;2023-04-25T09:44:00;8.15;;;7.35;;
2544;SDS011;36212;48.838;9.142;2023-04-25T09:46:34;9.05;;;8.25;;
2544;SDS011;36212;48.838;9.142;2023-04-25T09:49:08;9.60;;;8.60;;
2544;SDS011;36212;48.838;9.142;2023-04-25T09:51:41;8.02;;;7.32;;
2544;SDS011;36212;48.838;9.142;2023-04-25T09:54:24;9.20;;;8.23;;
2544;SDS011;36212;48.838;9.142;2023-04-25T09:56:57;7.90;;;7.10;;
2544;SDS011;36212;48.838;9.142;2023-04-25T09:59:45;7.00;;;6.40;;
2544;SDS011;36212;48.838;9.142;2023-04-25T10:02:24;5.03;;;4.72;;
2544;SDS011;36212;48.838;9.142;2023-04-25T10:04:57;4.15;;;3.85;;
2544;SDS011;36212;48.838;9.142;2023-04-25T10:07:36;4.80;;;4.32;;
2544;SDS011;36212;48.838;9.142;2023-04-25T10:10:11;3.80;;;3.50;;
2544;SDS011;36212;48.838;9.142;2023-04-25T10:12:45;5.57;;;4.38;;
2544;SDS011;36212;48.838;9.142;2023-04-25T10:15:17;5.13;;;4.70;;
2544;SDS011;36212;48.838;9.142;2023-04-25T10:17:51;7.10;;;5.15;;
2544;SDS011;36212;48.838;9.142;2023-04-25T10:20:26;5.50;;;5.07;;
2544;SDS011;36212;48.838;9.142;2023-04-25T10:23:03;5.07;;;4.50;;
2544;SDS011;36212;48.838;9.142;2023-04-25T10:25:46;5.50;;;5.10;;
2544;SDS011;36212;48.838;9.142;2023-04-25T10:28:20;4.70;;;4.30;;
2544;SDS011;36212;48.838;9.142;2023-04-25T10:31:03;4.30;;;4.00;;
2544;SDS011;36212;48.838;9.142;2023-04-25T10:33:39;6.30;;;5.43;;
2544;SDS011;36212;48.838;9.142;2023-04-25T10:36:18;6.00;;;5.50;;
2544;SDS011;36212;48.838;9.142;2023-04-25T10:39:05;6.15;;;5.70;;
2544;SDS011;36212;48.838;9.142;2023-04-25T10:41:46;7.10;;;6.40;;
2544;SDS011;36212;48.838;9.142;2023-04-25T10:44:33;4.70;;;4.35;;
2544;SDS011;36212;48.838;9.142;2023-04-25T10:47:09;5.60;;;5.20;;
2544;SDS011;36212;48.838;9.142;2023-04-25T10:49:42;6.20;;;5.70;;
2544;SDS011;36212;48.838;9.142;2023-04-25T10:52:25;5.85;;;5.45;;
2544;SDS011;36212;48.838;9.142;2023-04-25T10:54:59;6.63;;;6.15;;
2544;SDS011;36212;48.838;9.142;2023-04-25T11:00:19;6.60;;;5.70;;
2544;SDS011;36212;48.838;9.142;2023-04-25T11:03:05;5.95;;;5.45;;
2544;SDS011;36212;48.838;9.142;2023-04-25T11:05:38;5.28;;;4.95;;
2544;SDS011;36212;48.838;9.142;2023-04-25T11:08:35;4.75;;;4.40;;
2544;SDS011;36212;48.838;9.142;2023-04-25T11:11:23;6.50;;;5.05;;
2544;SDS011;36212;48.838;9.142;2023-04-25T11:13:56;4.40;;;4.10;;
2544;SDS011;36212;48.838;9.142;2023-04-25T11:16:29;4.15;;;3.85;;
2544;SDS011;36212;48.838;9.142;2023-04-25T11:19:03;3.90;;;3.60;;
2544;SDS011;36212;48.838;9.142;2023-04-25T11:21:35;4.40;;;4.05;;
2544;SDS011;36212;48.838;9.142;2023-04-25T11:24:08;4.72;;;4.32;;
2544;SDS011;36212;48.838;9.142;2023-04-25T11:26:42;4.68;;;4.30;;
2544;SDS011;36212;48.838;9.142;2023-04-25T11:29:16;4.55;;;4.25;;
2544;SDS011;36212;48.838;9.142;2023-04-25T11:31:52;4.15;;;3.85;;
2544;SDS011;36212;48.838;9.142;2023-04-25T11:34:30;4.60;;;4.30;;
2544;SDS011;36212;48.838;9.142;2023-04-25T11:37:05;4.63;;;4.22;;
2544;SDS011;36212;48.838;9.142;2023-04-25T11:39:38;5.20;;;4.80;;
2544;SDS011;36212;48.838;9.142;2023-04-25T11:42:14;4.65;;;4.30;;
2544;SDS011;36212;48.838;9.142;2023-04-25T11:44:47;4.47;;;4.18;;
2544;SDS011;36212;48.838;9.142;2023-04-25T11:47:20;5.55;;;5.15;;
2544;SDS011;36212;48.838;9.142;2023-04-25T11:50:00;4.60;;;4.20;;
2544;SDS011;36212;48.838;9.142;2023-04-25T11:52:40;5.50;;;5.00;;
2544;SDS011;36212;48.838;9.142;2023-04-25T11:55:16;5.70;;;5.18;;
2544;SDS011;36212;48.838;9.142;2023-04-25T11:57:50;5.05;;;4.45;;
2544;SDS011;36212;48.838;9.142;2023-04-25T12:00:23;5.10;;;4.80;;
2544;SDS011;36212;48.838;9.142;2023-04-25T12:02:56;5.70;;;5.20;;
2544;SDS011;36212;48.838;9.142;2023-04-25T12:06:01;5.60;;;5.10;;
2544;SDS011;36212;48.838;9.142;2023-04-25T12:08:36;6.72;;;6.10;;
2544;SDS011;36212;48.838;9.142;2023-04-25T12:11:29;6.20;;;5.72;;
2544;SDS011;36212;48.838;9.142;2023-04-25T12:14:11;6.40;;;5.90;;
2544;SDS011;36212;48.838;9.142;2023-04-25T12:16:55;7.10;;;6.40;;
2544;SDS011;36212;48.838;9.142;2023-04-25T12:19:34;7.47;;;6.72;;
2544;SDS011;36212;48.838;9.142;2023-04-25T12:22:23;8.70;;;7.90;;
2544;SDS011;36212;48.838;9.142;2023-04-25T12:24:56;8.52;;;7.80;;
2544;SDS011;36212;48.838;9.142;2023-04-25T12:27:30;8.40;;;7.53;;
2544;SDS011;36212;48.838;9.142;2023-04-25T12:30:04;7.22;;;6.63;;
2544;SDS011;36212;48.838;9.142;2023-04-25T12:32:47;8.15;;;7.43;;
2544;SDS011;36212;48.838;9.142;2023-04-25T12:35:20;7.00;;;6.40;;
2544;SDS011;36212;48.838;9.142;2023-04-25T12:37:52;7.97;;;7.22;;
2544;SDS011;36212;48.838;9.142;2023-04-25T12:40:25;8.05;;;7.25;;
2544;SDS011;36212;48.838;9.142;2023-04-25T12:42:57;9.55;;;7.50;;
2544;SDS011;36212;48.838;9.142;2023-04-25T12:45:30;9.27;;;8.48;;
2544;SDS011;36212;48.838;9.142;2023-04-25T12:48:02;8.57;;;7.70;;
2544;SDS011;36212;48.838;9.142;2023-04-25T12:50:34;8.88;;;8.07;;
2544;SDS011;36212;48.838;9.142;2023-04-25T12:53:07;9.65;;;8.75;;
2544;SDS011;36212;48.838;9.142;2023-04-25T12:55:40;9.07;;;8.05;;
2544;SDS011;36212;48.838;9.142;2023-04-25T12:58:14;8.10;;;7.30;;
2544;SDS011;36212;48.838;9.142;2023-04-25T13:00:48;8.55;;;7.85;;
2544;SDS011;36212;48.838;9.142;2023-04-25T13:03:21;10.30;;;9.18;;
2544;SDS011;36212;48.838;9.142;2023-04-25T13:05:54;8.68;;;6.93;;
2544;SDS011;36212;48.838;9.142;2023-04-25T13:08:27;10.18;;;7.50;;
2544;SDS011;36212;48.838;9.142;2023-04-25T13:11:00;6.57;;;6.07;;
2544;SDS011;36212;48.838;9.142;2023-04-25T13:13:33;11.32;;;7.32;;
2544;SDS011;36212;48.838;9.142;2023-04-25T13:16:06;8.32;;;7.63;;
2544;SDS011;36212;48.838;9.142;2023-04-25T13:18:39;9.52;;;8.63;;
2544;SDS011;36212;48.838;9.142;2023-04-25T13:21:12;8.90;;;8.13;;
2544;SDS011;36212;48.838;9.142;2023-04-25T13:23:44;8.68;;;7.75;;
2544;SDS011;36212;48.838;9.142;2023-04-25T13:26:18;9.05;;;8.35;;
2544;SDS011;36212;48.838;9.142;2023-04-25T13:28:51;8.55;;;7.85;;
2544;SDS011;36212;48.838;9.142;2023-04-25T13:31:23;10.23;;;9.32;;
2544;SDS011;36212;48.838;9.142;2023-04-25T13:33:56;10.98;;;9.95;;
2544;SDS011;36212;48.838;9.142;2023-04-25T13:36:28;11.75;;;10.65;;
2544;SDS011;36212;48.838;9.142;2023-04-25T13:39:02;11.27;;;10.20;;
2544;SDS011;36212;48.838;9.142;2023-04-25T13:41:36;11.85;;;10.65;;
2544;SDS011;36212;48.838;9.142;2023-04-25T13:44:08;11.07;;;10.07;;
2544;SDS011;36212;48.838;9.142;2023-04-25T13:46:40;11.95;;;10.90;;
2544;SDS011;36212;48.838;9.142;2023-04-25T13:49:18;10.93;;;9.90;;
2544;SDS011;36212;48.838;9.142;2023-04-25T13:51:50;10.68;;;9.68;;
2544;SDS011;36212;48.838;9.142;2023-04-25T13:54:22;13.15;;;10.77;;
2544;SDS011;36212;48.838;9.142;2023-04-25T13:56:55;11.10;;;10.00;;
2544;SDS011;36212;48.838;9.142;2023-04-25T13:59:31;10.30;;;9.40;;
2544;SDS011;36212;48.838;9.142;2023-04-25T14:02:04;9.70;;;8.75;;
2544;SDS011;36212;48.838;9.142;2023-04-25T14:04:37;9.48;;;8.63;;
2544;SDS011;36212;48.838;9.142;2023-04-25T14:07:10;10.52;;;7.97;;
2544;SDS011;36212;48.838;9.142;2023-04-25T14:09:43;10.43;;;9.02;;
2544;SDS011;36212;48.838;9.142;2023-04-25T14:12:16;8.82;;;8.13;;
2544;SDS011;36212;48.838;9.142;2023-04-25T14:14:48;8.05;;;7.35;;
2544;SDS011;36212;48.838;9.142;2023-04-25T14:17:24;9.50;;;8.60;;
2544;SDS011;36212;48.838;9.142;2023-04-25T14:20:08;10.20;;;8.32;;
2544;SDS011;36212;48.838;9.142;2023-04-25T14:22:42;8.60;;;7.72;;
2544;SDS011;36212;48.838;9.142;2023-04-25T14:25:18;9.23;;;7.72;;
2544;SDS011;36212;48.838;9.142;2023-04-25T14:27:54;6.97;;;6.38;;
2544;SDS011;36212;48.838;9.142;2023-04-25T14:30:38;7.60;;;6.90;;
2544;SDS011;36212;48.838;9.142;2023-04-25T14:33:10;9.05;;;8.25;;
2544;SDS011;36212;48.838;9.142;2023-04-25T14:35:44;9.13;;;8.40;;
2544;SDS011;36212;48.838;9.142;2023-04-25T14:38:17;8.63;;;7.75;;
2544;SDS011;36212;48.838;9.142;2023-04-25T14:40:55;8.00;;;6.90;;
2544;SDS011;36212;48.838;9.142;2023-04-25T14:43:28;8.25;;;7.47;;
2544;SDS011;36212;48.838;9.142;2023-04-25T14:46:00;8.63;;;7.82;;
2544;SDS011;36212;48.838;9.142;2023-04-25T14:48:34;8.63;;;7.90;;
2544;SDS011;36212;48.838;9.142;2023-04-25T14:53:42;8.02;;;7.35;;
2544;SDS011;36212;48.838;9.142;2023-04-25T14:56:14;8.18;;;7.10;;
2544;SDS011;36212;48.838;9.142;2023-04-25T14:58:47;9.38;;;8.48;;
2544;SDS011;36212;48.838;9.142;2023-04-25T15:01:19;8.85;;;8.05;;
2544;SDS011;36212;48.838;9.142;2023-04-25T15:03:52;8.18;;;7.40;;
2544;SDS011;36212;48.838;9.142;2023-04-25T15:06:25;9.75;;;6.78;;
2544;SDS011;36212;48.838;9.142;2023-04-25T15:09:00;9.02;;;8.00;;
2544;SDS011;36212;48.838;9.142;2023-04-25T15:11:33;8.68;;;7.80;;
2544;SDS011;36212;48.838;9.142;2023-04-25T15:14:05;7.60;;;6.90;;
2544;SDS011;36212;48.838;9.142;2023-04-25T15:16:38;7.72;;;7.13;;
2544;SDS011;36212;48.838;9.142;2023-04-25T15:19:10;6.57;;;6.00;;
2544;SDS011;36212;48.838;9.142;2023-04-25T15:21:43;6.82;;;6.15;;
2544;SDS011;36212;48.838;9.142;2023-04-25T15:24:20;7.47;;;6.93;;
2544;SDS011;36212;48.838;9.142;2023-04-25T15:26:53;6.32;;;5.93;;
2544;SDS011;36212;48.838;9.142;2023-04-25T15:29:25;8.18;;;6.40;;
2544;SDS011;36212;48.838;9.142;2023-04-25T15:31:59;7.20;;;6.60;;
2544;SDS011;36212;48.838;9.142;2023-04-25T15:34:32;7.65;;;6.95;;
2544;SDS011;36212;48.838;9.142;2023-04-25T15:37:07;7.53;;;6.82;;
2544;SDS011;36212;48.838;9.142;2023-04-25T15:39:39;11.95;;;6.90;;
2544;SDS011;36212;48.838;9.142;2023-04-25T15:42:13;9.07;;;6.93;;
2544;SDS011;36212;48.838;9.142;2023-04-25T15:44:46;7.25;;;6.65;;
2544;SDS011;36212;48.838;9.142;2023-04-25T15:47:19;7.32;;;6.82;;
2544;SDS011;36212;48.838;9.142;2023-04-25T15:49:51;8.30;;;7.25;;
2544;SDS011;36212;48.838;9.142;2023-04-25T15:52:24;7.75;;;6.97;;